Time;durP1;ratioP1;P1;durP2;ratioP2;P2;SDS_P1;SDS_P2;PMS_P1;PMS_P2;Temp;Humidity;BMP_temperature;BMP_pressure;BME280_temperature;BME280_humidity;BME280_pressure;Samples;Min_cycle;Max_cycle;Signal;HPM_P1;HPM_P2
2021/12/31 13:49:13;;;;;;;16.90;8.60;;;;;;;-142.75;100.00;77444.38;5111827;27;20727;-70
2021/12/31 13:51:40;;;;;;;15.05;5.68;;;;;;;-142.75;100.00;77446.34;5106519;28;20031;-73
2021/12/31 13:54:08;;;;;;;14.38;5.40;;;;;;;-142.75;100.00;77448.34;5113745;28;20030;-69
2021/12/31 13:56:38;;;;;;;18.85;5.65;;;;;;;-142.75;100.00;77456.22;5106868;28;20031;-70
2021/12/31 13:59:36;;;;;;;16.15;5.20;;;;;;;-142.75;100.00;77456.22;5106960;28;20035;-71
2021/12/31 14:02:06;;;;;;;21.98;5.57;;;;;;;-142.75;100.00;77454.25;5105622;28;20023;-71
2021/12/31 14:04:35;;;;;;;15.88;4.55;;;;;;;-142.75;100.00;77450.28;5115536;28;20035;-70
2021/12/31 14:07:18;;;;;;;19.30;5.40;;;;;;;-142.75;100.00;77464.09;5127146;27;20106;-70
2021/12/31 14:09:47;;;;;;;17.95;4.70;;;;;;;-142.75;100.00;77471.97;5126484;27;20031;-70
2021/12/31 14:12:13;;;;;;;15.35;4.78;;;;;;;-142.75;100.00;77468.03;5127069;27;20110;-70
2021/12/31 14:14:42;;;;;;;17.65;4.90;;;;;;;-142.75;100.00;77477.88;5127016;27;20155;-70
2021/12/31 14:17:11;;;;;;;12.10;4.28;;;;;;;-142.75;100.00;77485.75;5125831;27;20027;-70
2021/12/31 14:19:39;;;;;;;17.23;4.53;;;;;;;-142.75;100.00;77479.84;5126986;27;20094;-70
2021/12/31 14:22:08;;;;;;;22.55;5.45;;;;;;;-142.75;100.00;77479.84;5104961;28;20016;-71
2021/12/31 14:24:34;;;;;;;15.88;4.55;;;;;;;-142.75;100.00;77454.25;5106312;28;20516;-70
2021/12/31 14:27:00;;;;;;;;;;;;;;;-142.75;100.00;77462.13;5106878;28;20024;-69
2021/12/31 14:29:29;;;;;;;21.83;4.90;;;;;;;-142.75;100.00;77464.09;5106244;28;20284;-69
2021/12/31 14:31:55;;;;;;;17.98;5.53;;;;;;;-142.75;100.00;77462.13;5105274;28;20149;-69
2021/12/31 14:34:24;;;;;;;18.75;4.93;;;;;;;-142.75;100.00;77470.00;5106433;28;20094;-70
2021/12/31 14:37:12;;;;;;;19.30;4.20;;;;;;;-142.75;100.00;77470.00;5106324;28;20023;-70
2021/12/31 14:39:38;;;;;;;15.38;4.78;;;;;;;-142.75;100.00;77468.03;5105725;28;20032;-69
2021/12/31 14:42:06;;;;;;;16.83;4.97;;;;;;;-142.75;100.00;77464.09;5106032;28;20405;-70
2021/12/31 14:44:31;;;;;;;20.15;4.55;;;;;;;-142.75;100.00;77462.13;5106024;28;20035;-70
2021/12/31 14:46:57;;;;;;;20.90;5.35;;;;;;;-142.75;100.00;77468.03;5106135;28;20012;-69
2021/12/31 14:49:24;;;;;;;;;;;;;;;-142.75;100.00;77481.81;5106385;28;20040;-69
2021/12/31 14:51:50;;;;;;;17.15;3.85;;;;;;;-142.75;100.00;77479.84;5105550;28;19904;-70
2021/12/31 14:54:16;;;;;;;14.20;4.43;;;;;;;-142.75;100.00;77473.94;5105871;28;20103;-70
2021/12/31 14:56:41;;;;;;;15.13;4.43;;;;;;;-142.75;100.00;77487.72;5105813;28;20110;-70
2021/12/31 14:59:08;;;;;;;22.55;5.63;;;;;;;-142.75;100.00;77487.72;5098243;28;20027;-71
2021/12/31 15:01:35;;;;;;;17.42;4.50;;;;;;;-142.75;100.00;77499.53;5091255;28;20047;-70
2021/12/31 15:04:00;;;;;;;20.45;4.78;;;;;;;-142.75;100.00;77507.41;5091909;28;20024;-70
2021/12/31 15:06:26;;;;;;;13.82;4.25;;;;;;;-142.75;100.00;77515.28;5091843;28;20028;-70
2021/12/31 15:08:52;;;;;;;16.63;5.43;;;;;;;-142.75;100.00;77523.16;5090687;28;20031;-69
2021/12/31 15:11:18;;;;;;;18.90;4.88;;;;;;;-142.75;100.00;77515.28;5091391;28;20026;-70
2021/12/31 15:13:44;;;;;;;19.42;5.65;;;;;;;-142.75;100.00;77523.16;5091754;28;20020;-70
2021/12/31 15:16:09;;;;;;;17.63;5.55;;;;;;;-142.75;100.00;77529.06;5090395;28;20035;-69
2021/12/31 15:18:34;;;;;;;20.92;4.55;;;;;;;-142.75;100.00;77534.97;5091536;28;20511;-70
2021/12/31 15:21:00;;;;;;;16.55;4.97;;;;;;;-142.75;100.00;77542.84;5090836;28;20485;-69
2021/12/31 15:23:25;;;;;;;22.92;5.28;;;;;;;-142.75;100.00;77554.66;5091763;28;20389;-70
2021/12/31 15:25:50;;;;;;;16.88;5.18;;;;;;;-142.75;100.00;77562.53;5091918;28;20028;-70
2021/12/31 15:28:15;;;;;;;;;;;;;;;-142.75;100.00;77566.47;5091832;28;20127;-70
2021/12/31 15:30:42;;;;;;;20.55;5.53;;;;;;;-142.75;100.00;77574.34;5110570;28;19980;-71
2021/12/31 15:33:07;;;;;;;17.80;5.20;;;;;;;-142.75;100.00;77574.34;5111697;28;20034;-70
2021/12/31 15:35:33;;;;;;;17.98;5.70;;;;;;;-142.75;100.00;77586.16;5111613;28;20115;-70
2021/12/31 15:37:58;;;;;;;20.55;6.32;;;;;;;-142.75;100.00;77582.22;5111485;28;20023;-69
2021/12/31 15:40:26;;;;;;;;;;;;;;;-142.75;100.00;77588.13;5110150;28;20066;-70
2021/12/31 15:42:52;;;;;;;20.25;6.90;;;;;;;-142.75;100.00;77594.03;5111254;28;19919;-69
2021/12/31 15:45:17;;;;;;;21.08;7.20;;;;;;;-142.75;100.00;77597.97;5111071;28;20031;-69
2021/12/31 15:47:45;;;;;;;24.23;6.43;;;;;;;-142.75;100.00;77588.13;5110555;28;20027;-69
2021/12/31 15:50:11;;;;;;;15.82;5.78;;;;;;;-142.75;100.00;77596.00;5110051;28;20602;-69
2021/12/31 15:52:36;;;;;;;19.85;7.72;;;;;;;-142.75;100.00;77617.66;5109599;28;20106;-70
2021/12/31 15:55:03;;;;;;;22.17;6.47;;;;;;;-142.75;100.00;77613.72;5110589;28;20688;-71
2021/12/31 15:57:28;;;;;;;19.92;6.32;;;;;;;-142.75;100.00;77617.66;5109039;28;20019;-69
2021/12/31 15:59:53;;;;;;;23.95;6.25;;;;;;;-142.75;100.00;77609.78;5108906;28;20038;-70
2021/12/31 16:02:19;;;;;;;22.80;5.78;;;;;;;-142.75;100.00;77627.50;5095607;28;20038;-70
2021/12/31 16:04:45;;;;;;;22.05;8.00;;;;;;;-142.75;100.00;77629.47;5089369;28;20024;-69
2021/12/31 16:07:11;;;;;;;21.30;5.95;;;;;;;-142.75;100.00;77633.41;5089206;28;20478;-69
2021/12/31 16:09:36;;;;;;;19.58;6.55;;;;;;;-142.75;100.00;77633.41;5101974;28;20092;-70
2021/12/31 16:12:01;;;;;;;;;;;;;;;-142.75;100.00;77641.28;5108415;28;20023;-70
2021/12/31 16:14:27;;;;;;;30.13;7.50;;;;;;;-142.75;100.00;77649.16;5089697;28;19920;-69
2021/12/31 16:16:53;;;;;;;29.67;6.88;;;;;;;-142.75;100.00;77660.97;5086334;28;20375;-69
2021/12/31 16:19:18;;;;;;;19.55;5.78;;;;;;;-142.75;100.00;77668.84;5089210;28;20016;-68
2021/12/31 16:21:43;;;;;;;22.55;6.07;;;;;;;-142.75;100.00;77659.00;5088545;28;20032;-68
2021/12/31 16:24:08;;;;;;;;;;;;;;;-142.75;100.00;77674.75;5093289;28;20024;-67
2021/12/31 16:26:34;;;;;;;31.05;7.03;;;;;;;-142.75;100.00;77680.66;5089954;28;19911;-68
2021/12/31 16:28:59;;;;;;;;;;;;;;;-142.75;100.00;77686.56;5089933;28;20039;-68
2021/12/31 16:31:24;;;;;;;22.70;7.03;;;;;;;-142.75;100.00;77686.56;5097642;28;19918;-68
2021/12/31 16:33:49;;;;;;;22.13;8.13;;;;;;;-142.75;100.00;77690.50;5110003;28;20104;-69
2021/12/31 16:36:15;;;;;;;25.20;9.05;;;;;;;-142.75;100.00;77686.56;5106421;28;20081;-68
2021/12/31 16:38:41;;;;;;;26.20;8.50;;;;;;;-142.75;100.00;77680.66;5109064;28;20023;-68
2021/12/31 16:41:07;;;;;;;27.17;8.43;;;;;;;-142.75;100.00;77684.59;5108114;28;20031;-68
2021/12/31 16:43:32;;;;;;;23.92;8.85;;;;;;;-142.75;100.00;77692.47;5109257;28;20038;-69
2021/12/31 16:45:58;;;;;;;29.95;9.60;;;;;;;-142.75;100.00;77688.53;5108908;28;20023;-69
2021/12/31 16:48:24;;;;;;;25.73;8.98;;;;;;;-142.75;100.00;77686.56;5108385;28;20020;-69
2021/12/31 16:50:50;;;;;;;27.25;10.77;;;;;;;-142.75;100.00;77698.38;5108618;28;20505;-68
2021/12/31 16:53:16;;;;;;;;;;;;;;;-142.75;100.00;77698.38;5109369;28;20026;-68
2021/12/31 16:55:41;;;;;;;25.30;9.95;;;;;;;-142.75;100.00;77700.34;5107822;28;19984;-68
2021/12/31 16:58:07;;;;;;;;;;;;;;;-142.75;100.00;77714.13;5107928;28;20024;-69
2021/12/31 17:00:33;;;;;;;30.85;10.75;;;;;;;-142.75;100.00;77722.00;5108161;28;19920;-68
2021/12/31 17:02:58;;;;;;;29.33;10.20;;;;;;;-142.75;100.00;77723.97;5108662;28;20500;-68
2021/12/31 17:05:23;;;;;;;29.48;12.20;;;;;;;-142.75;100.00;77723.97;5108683;28;20138;-67
2021/12/31 17:07:48;;;;;;;26.13;11.57;;;;;;;-142.75;100.00;77735.81;5108969;28;20017;-69
2021/12/31 17:10:18;;;;;;;27.63;11.35;;;;;;;-142.75;100.00;77739.75;5107803;28;20019;-68
2021/12/31 17:12:47;;;;;;;26.60;11.48;;;;;;;-142.75;100.00;77737.78;5101816;28;20024;-69
2021/12/31 17:15:13;;;;;;;30.10;11.75;;;;;;;-142.75;100.00;77739.75;5088250;28;20024;-68
2021/12/31 17:17:38;;;;;;;36.45;12.15;;;;;;;-142.75;100.00;77743.69;5088009;28;20024;-69
2021/12/31 17:20:04;;;;;;;37.55;13.95;;;;;;;-142.75;100.00;77751.56;5087269;28;20034;-69
2021/12/31 17:22:30;;;;;;;28.20;12.70;;;;;;;-142.75;100.00;77747.63;5090262;28;20027;-69
2021/12/31 17:24:55;;;;;;;34.75;15.73;;;;;;;-142.75;100.00;77755.50;5108736;28;20038;-69
2021/12/31 17:27:21;;;;;;;;;;;;;;;-142.75;100.00;77759.44;5108738;28;20046;-68
2021/12/31 17:29:46;;;;;;;36.42;15.25;;;;;;;-142.75;100.00;77763.38;5107544;28;19957;-68
2021/12/31 17:32:11;;;;;;;35.22;14.30;;;;;;;-142.75;100.00;77763.38;5087099;28;20031;-68
2021/12/31 17:34:36;;;;;;;;;;;;;;;-142.75;100.00;77743.69;5095879;28;20076;-67
2021/12/31 17:37:03;;;;;;;37.53;13.63;;;;;;;-142.75;100.00;77747.63;5108278;28;19991;-69
2021/12/31 17:39:28;;;;;;;38.15;15.65;;;;;;;-142.75;100.00;77751.56;5105119;28;20030;-69
2021/12/31 17:41:54;;;;;;;46.63;21.67;;;;;;;-142.75;100.00;77761.41;5087118;28;20016;-69
2021/12/31 17:44:19;;;;;;;42.53;19.10;;;;;;;-142.75;100.00;77757.47;5087920;28;20024;-68
2021/12/31 17:46:44;;;;;;;32.42;15.43;;;;;;;-142.75;100.00;77759.44;5101936;28;20542;-68
2021/12/31 17:49:09;;;;;;;37.90;16.15;;;;;;;-142.75;100.00;77767.31;5108033;28;20028;-68
2021/12/31 17:51:35;;;;;;;38.35;15.40;;;;;;;-142.75;100.00;77757.47;5096469;28;20370;-68
2021/12/31 17:54:00;;;;;;;44.85;16.10;;;;;;;-142.75;100.00;77755.50;5097770;28;20072;-68
2021/12/31 17:56:25;;;;;;;41.95;16.20;;;;;;;-142.75;100.00;77759.44;5107189;28;20031;-68
2021/12/31 17:58:51;;;;;;;;;;;;;;;-142.75;100.00;77759.44;5107292;28;20012;-68
2021/12/31 18:01:16;;;;;;;34.30;13.73;;;;;;;-142.75;100.00;77749.59;5095419;28;20503;-68
2021/12/31 18:03:41;;;;;;;44.00;18.45;;;;;;;-142.75;100.00;77751.56;5087691;28;20028;-68
2021/12/31 18:06:07;;;;;;;37.42;18.67;;;;;;;-142.75;100.00;77751.56;5101448;28;20027;-68
2021/12/31 18:08:32;;;;;;;41.88;16.55;;;;;;;-142.75;100.00;77765.34;5098752;28;20027;-68
2021/12/31 18:10:57;;;;;;;43.88;17.65;;;;;;;-142.75;100.00;77771.25;5094920;28;20054;-68
2021/12/31 18:13:23;;;;;;;37.90;16.58;;;;;;;-142.75;100.00;77777.16;5091331;28;20030;-71
2021/12/31 18:15:48;;;;;;;;;;;;;;;-142.75;100.00;77773.22;5091129;28;20374;-69
2021/12/31 18:18:13;;;;;;;37.80;17.60;;;;;;;-142.75;100.00;77787.00;5087504;28;19918;-68
2021/12/31 18:20:39;;;;;;;;;;;;;;;-142.75;100.00;77790.94;5087287;28;20047;-68
2021/12/31 18:23:04;;;;;;;46.72;19.70;;;;;;;-142.75;100.00;77792.91;5087320;28;19915;-69
2021/12/31 18:25:31;;;;;;;40.28;17.17;;;;;;;-142.75;100.00;77777.16;5088287;28;20455;-70
2021/12/31 18:27:56;;;;;;;34.20;16.73;;;;;;;-142.75;100.00;77769.28;5087989;28;20137;-70
2021/12/31 18:30:21;;;;;;;37.83;15.50;;;;;;;-142.75;100.00;77765.34;5086532;28;20111;-69
2021/12/31 18:32:47;;;;;;;35.63;14.50;;;;;;;-142.75;100.00;77763.38;5088120;28;20055;-69
2021/12/31 18:35:12;;;;;;;37.97;15.48;;;;;;;-142.75;100.00;77765.34;5090762;28;20032;-70
2021/12/31 18:37:37;;;;;;;43.92;18.23;;;;;;;-142.75;100.00;77773.22;5093752;28;20027;-68
2021/12/31 18:40:04;;;;;;;41.25;17.48;;;;;;;-142.75;100.00;77773.22;5090397;28;20393;-69
2021/12/31 18:42:29;;;;;;;44.67;16.85;;;;;;;-142.75;100.00;77779.13;5103422;28;20028;-69
2021/12/31 18:44:54;;;;;;;38.70;14.90;;;;;;;-142.75;100.00;77779.13;5112158;28;20035;-69
2021/12/31 18:47:21;;;;;;;41.33;15.95;;;;;;;-142.75;100.00;77783.06;5112244;28;20020;-69
2021/12/31 18:52:43;;;;;;;35.17;13.98;;;;;;;-142.75;100.00;77783.06;5107960;28;20120;-69
2021/12/31 18:55:08;;;;;;;33.92;15.18;;;;;;;-142.75;100.00;77773.22;5112319;28;20028;-69
2021/12/31 18:57:34;;;;;;;30.30;14.18;;;;;;;-142.75;100.00;77781.09;5112563;28;20544;-69
2021/12/31 18:59:59;;;;;;;41.03;15.32;;;;;;;-142.75;100.00;77788.97;5110994;28;20126;-68
2021/12/31 19:02:25;;;;;;;;;;;;;;;-142.75;100.00;77796.84;5100744;28;20153;-69
2021/12/31 19:04:51;;;;;;;34.80;12.10;;;;;;;-142.75;100.00;77798.81;5107490;28;19912;-69
2021/12/31 19:07:16;;;;;;;35.63;13.65;;;;;;;-142.75;100.00;77806.69;5111934;28;20514;-69
2021/12/31 19:09:41;;;;;;;;;;;;;;;-142.75;100.00;77810.63;5110937;28;20024;-68
2021/12/31 19:12:07;;;;;;;37.25;15.20;;;;;;;-142.75;100.00;77822.44;5111726;28;20006;-69
2021/12/31 19:14:33;;;;;;;33.70;12.82;;;;;;;-142.75;100.00;77830.31;5111702;27;20037;-69
2021/12/31 19:16:58;;;;;;;41.05;12.25;;;;;;;-142.75;100.00;77838.19;5111254;28;20072;-69
2021/12/31 19:19:23;;;;;;;35.85;12.70;;;;;;;-142.75;100.00;77850.00;5111220;28;20110;-70
2021/12/31 19:21:49;;;;;;;33.03;13.18;;;;;;;-142.75;100.00;77842.13;5110827;28;20024;-69
2021/12/31 19:24:14;;;;;;;42.75;16.10;;;;;;;-142.75;100.00;77844.09;5110985;28;20028;-69
2021/12/31 19:26:39;;;;;;;44.72;14.50;;;;;;;-142.75;100.00;77853.94;5112228;28;21028;-69
2021/12/31 19:29:05;;;;;;;45.75;15.15;;;;;;;-142.75;100.00;77853.94;5110834;28;20030;-69
2021/12/31 19:31:30;;;;;;;42.30;18.20;;;;;;;-142.75;100.00;77846.06;5109666;28;20019;-69
2021/12/31 19:33:55;;;;;;;38.95;17.23;;;;;;;-142.75;100.00;77846.06;5091293;28;20024;-69
2021/12/31 19:36:21;;;;;;;45.00;20.15;;;;;;;-142.75;100.00;77842.13;5089723;28;20118;-69
2021/12/31 19:38:46;;;;;;;37.50;13.98;;;;;;;-142.75;100.00;77834.25;5088400;28;20023;-69
2021/12/31 19:41:11;;;;;;;;;;;;;;;-142.75;100.00;77836.22;5088624;28;20042;-69
2021/12/31 19:43:37;;;;;;;41.55;14.07;;;;;;;-142.75;100.00;77848.03;5090321;28;19911;-69
2021/12/31 19:46:02;;;;;;;46.70;17.70;;;;;;;-142.75;100.00;77850.00;5089839;28;20097;-69
2021/12/31 19:48:28;;;;;;;38.33;14.23;;;;;;;-142.75;100.00;77844.09;5089870;28;20416;-69
2021/12/31 19:50:53;;;;;;;35.03;15.85;;;;;;;-142.75;100.00;77848.03;5087951;28;20023;-69
2021/12/31 19:53:18;;;;;;;46.63;17.00;;;;;;;-142.75;100.00;77850.00;5089823;28;20024;-69
2021/12/31 19:55:44;;;;;;;33.30;16.35;;;;;;;-142.75;100.00;77846.06;5090542;28;20389;-69
2021/12/31 19:58:10;;;;;;;49.38;17.05;;;;;;;-142.75;100.00;77848.03;5089566;28;20114;-69
2021/12/31 20:00:35;;;;;;;;;;;;;;;-142.75;100.00;77855.91;5088348;28;20363;-69
2021/12/31 20:03:01;;;;;;;49.17;22.20;;;;;;;-142.75;100.00;77846.06;5089559;28;19957;-69
2021/12/31 20:05:29;;;;;;;51.67;21.85;;;;;;;-142.75;100.00;77834.25;5089320;28;20039;-69
2021/12/31 20:07:54;;;;;;;36.92;17.98;;;;;;;-142.75;100.00;77836.22;5089643;28;20451;-69
2021/12/31 20:10:20;;;;;;;41.15;17.27;;;;;;;-142.75;100.00;77834.25;5089184;28;20040;-69
2021/12/31 20:12:48;;;;;;;47.30;18.55;;;;;;;-142.75;100.00;77830.31;5088493;28;20051;-69
2021/12/31 20:15:15;;;;;;;38.03;17.70;;;;;;;-142.75;100.00;77840.16;5088071;28;20031;-69
2021/12/31 20:17:42;;;;;;;50.72;19.65;;;;;;;-142.75;100.00;77838.19;5088853;28;20020;-69
2021/12/31 20:20:10;;;;;;;42.78;17.88;;;;;;;-142.75;100.00;77840.16;5088730;28;20052;-69
2021/12/31 20:22:36;;;;;;;44.00;16.23;;;;;;;-142.75;100.00;77842.13;5088862;28;20027;-69
2021/12/31 20:25:04;;;;;;;44.08;17.77;;;;;;;-142.75;100.00;77855.91;5089435;28;20111;-69
2021/12/31 20:27:29;;;;;;;40.42;18.45;;;;;;;-142.75;100.00;77850.00;5089473;28;20438;-69
2021/12/31 20:29:55;;;;;;;45.30;18.58;;;;;;;-142.75;100.00;77850.00;5088030;28;20063;-69
2021/12/31 20:32:20;;;;;;;46.50;23.95;;;;;;;-142.75;100.00;77848.03;5087205;28;20030;-70
2021/12/31 20:34:45;;;;;;;58.05;27.23;;;;;;;-142.75;100.00;77848.03;5086826;28;20027;-69
2021/12/31 20:37:11;;;;;;;54.60;21.08;;;;;;;-142.75;100.00;77855.91;5088098;28;20024;-69
2021/12/31 20:39:36;;;;;;;48.80;21.05;;;;;;;-142.75;100.00;77865.75;5088387;28;20027;-69
2021/12/31 20:42:03;;;;;;;48.10;20.02;;;;;;;-142.75;100.00;77869.69;5087941;28;20035;-69
2021/12/31 20:44:28;;;;;;;48.45;19.52;;;;;;;-142.75;100.00;77873.63;5088186;28;20020;-70
2021/12/31 20:46:53;;;;;;;48.58;21.40;;;;;;;-142.75;100.00;77875.59;5086852;28;20077;-69
2021/12/31 20:49:20;;;;;;;52.92;25.00;;;;;;;-142.75;100.00;77883.47;5088296;28;20385;-69
2021/12/31 20:51:45;;;;;;;56.17;27.05;;;;;;;-142.75;100.00;77901.19;5087895;28;20024;-69
2021/12/31 20:54:11;;;;;;;60.67;23.77;;;;;;;-142.75;100.00;77899.22;5088910;28;20039;-69
2021/12/31 20:56:36;;;;;;;51.97;20.83;;;;;;;-142.75;100.00;77905.13;5087334;28;20103;-69
2021/12/31 20:59:01;;;;;;;;;;;;;;;-142.75;100.00;77905.13;5088813;28;20020;-69
2021/12/31 21:01:27;;;;;;;38.47;16.55;;;;;;;-142.75;100.00;77901.19;5087808;28;19923;-69
2021/12/31 21:03:52;;;;;;;49.42;18.48;;;;;;;-142.75;100.00;77899.22;5088636;28;20028;-69
2021/12/31 21:06:17;;;;;;;;;;;;;;;-142.75;100.00;77905.13;5088911;28;20049;-69
2021/12/31 21:08:42;;;;;;;58.70;26.20;;;;;;;-142.75;100.00;77905.13;5088257;28;19920;-69
2021/12/31 21:11:08;;;;;;;70.00;32.55;;;;;;;-142.75;100.00;77905.13;5087437;28;20052;-69
2021/12/31 21:13:33;;;;;;;47.38;22.08;;;;;;;-142.75;100.00;77893.31;5088417;28;20020;-69
2021/12/31 21:15:58;;;;;;;56.38;20.23;;;;;;;-142.75;100.00;77891.34;5095911;28;20038;-69
2021/12/31 21:18:24;;;;;;;;;;;;;;;-142.75;100.00;77889.38;5104431;28;20055;-70
2021/12/31 21:20:49;;;;;;;51.25;19.13;;;;;;;-142.75;100.00;77903.16;5105750;28;19915;-69
2021/12/31 21:23:17;;;;;;;45.50;16.20;;;;;;;-142.75;100.00;77903.16;5108341;28;21806;-69
2021/12/31 21:25:42;;;;;;;71.47;30.95;;;;;;;-142.75;100.00;77913.03;5109016;28;20031;-69
2021/12/31 21:28:10;;;;;;;70.25;37.20;;;;;;;-142.75;100.00;77909.06;5107469;28;20095;-69
2021/12/31 21:30:38;;;;;;;78.95;40.75;;;;;;;-142.75;100.00;77922.88;5100537;28;20081;-69
2021/12/31 21:33:03;;;;;;;63.08;25.48;;;;;;;-142.75;100.00;77918.94;5086788;28;20085;-69
2021/12/31 21:35:29;;;;;;;50.00;19.45;;;;;;;-142.75;100.00;77926.81;5087264;28;20024;-69
2021/12/31 21:37:54;;;;;;;47.55;20.48;;;;;;;-142.75;100.00;77918.94;5104178;28;20020;-70
2021/12/31 21:40:20;;;;;;;47.17;20.05;;;;;;;-142.75;100.00;77920.91;5086661;28;20034;-69
2021/12/31 21:42:45;;;;;;;56.30;19.50;;;;;;;-142.75;100.00;77932.72;5101273;28;20106;-69
2021/12/31 21:45:10;;;;;;;;;;;;;;;-142.75;100.00;77936.66;5098698;28;20031;-69
2021/12/31 21:47:37;;;;;;;56.83;21.70;;;;;;;-142.75;100.00;77944.53;5087938;28;19965;-69
2021/12/31 21:50:09;;;;;;;63.03;27.23;;;;;;;-142.75;100.00;77936.66;5087208;28;20493;-68
2021/12/31 21:52:35;;;;;;;67.10;28.27;;;;;;;-142.75;100.00;77936.66;5087949;28;20355;-69
2021/12/31 21:55:01;;;;;;;;;;;;;;;-142.75;100.00;77944.53;5100060;28;20031;-69
2021/12/31 21:57:26;;;;;;;69.15;32.83;;;;;;;-142.75;100.00;77936.66;5109119;28;19968;-71
2021/12/31 21:59:51;;;;;;;69.63;27.85;;;;;;;-142.75;100.00;77932.72;5090363;28;20651;-69
2021/12/31 22:02:17;;;;;;;72.93;30.23;;;;;;;-142.75;100.00;77946.50;5087437;28;20067;-69
2021/12/31 22:04:43;;;;;;;72.28;30.40;;;;;;;-142.75;100.00;77964.22;5088636;28;20077;-69
2021/12/31 22:07:08;;;;;;;74.50;31.10;;;;;;;-142.75;100.00;77964.22;5091382;28;20400;-69
2021/12/31 22:09:33;;;;;;;63.60;30.23;;;;;;;-142.75;100.00;77972.09;5110794;28;20020;-69
2021/12/31 22:11:59;;;;;;;68.80;28.70;;;;;;;-142.75;100.00;77978.00;5111864;28;20012;-70
2021/12/31 22:14:24;;;;;;;68.00;25.75;;;;;;;-142.75;100.00;77979.97;5112593;27;20030;-70
2021/12/31 22:16:49;;;;;;;57.58;22.40;;;;;;;-142.75;100.00;77974.06;5112874;28;20023;-69
2021/12/31 22:19:15;;;;;;;62.25;22.90;;;;;;;-142.75;100.00;77979.97;5112683;28;20035;-69
2021/12/31 22:21:40;;;;;;;49.35;20.60;;;;;;;-142.75;100.00;77989.81;5111632;28;20063;-69
2021/12/31 22:24:07;;;;;;;58.50;22.42;;;;;;;-142.75;100.00;78005.56;5112495;28;20020;-69
2021/12/31 22:26:32;;;;;;;50.88;23.52;;;;;;;-142.75;100.00;78007.53;5112543;27;20034;-69
2021/12/31 22:28:57;;;;;;;55.42;23.33;;;;;;;-142.75;100.00;78013.44;5112538;28;20027;-69
2021/12/31 22:31:23;;;;;;;68.95;30.30;;;;;;;-142.75;100.00;78019.34;5112015;28;20023;-69
2021/12/31 22:33:48;;;;;;;65.40;29.63;;;;;;;-142.75;100.00;78027.22;5111686;28;20027;-69
2021/12/31 22:36:14;;;;;;;62.78;25.75;;;;;;;-142.75;100.00;78017.38;5112368;28;20019;-69
2021/12/31 22:38:39;;;;;;;58.38;25.13;;;;;;;-142.75;100.00;78019.34;5112747;28;20605;-69
2021/12/31 22:41:05;;;;;;;66.85;26.92;;;;;;;-142.75;100.00;78011.47;5111521;28;20031;-69
2021/12/31 22:43:30;;;;;;;72.00;32.38;;;;;;;-142.75;100.00;78005.56;5111328;28;20043;-69
2021/12/31 22:45:55;;;;;;;77.85;32.78;;;;;;;-142.75;100.00;78019.34;5112413;28;20535;-69
2021/12/31 22:48:21;;;;;;;70.00;27.30;;;;;;;-142.75;100.00;78019.34;5111953;28;20031;-69
2021/12/31 22:50:46;;;;;;;72.65;27.67;;;;;;;-142.75;100.00;78023.28;5111838;27;20031;-70
2021/12/31 22:53:11;;;;;;;63.65;24.70;;;;;;;-142.75;100.00;78015.41;5092864;28;20059;-69
2021/12/31 22:55:37;;;;;;;69.47;22.77;;;;;;;-142.75;100.00;78023.28;5091869;28;20016;-69
2021/12/31 22:58:02;;;;;;;66.57;25.27;;;;;;;-142.75;100.00;78031.16;5090201;28;20111;-69
2021/12/31 23:01:08;;;;;;;67.93;24.80;;;;;;;-142.75;100.00;78033.13;5090775;28;20062;-69
2021/12/31 23:03:34;;;;;;;62.25;27.85;;;;;;;-142.75;100.00;78039.03;5091689;28;20568;-69
2021/12/31 23:05:59;;;;;;;64.72;26.05;;;;;;;-142.75;100.00;78050.84;5105066;28;20134;-68
2021/12/31 23:08:24;;;;;;;146.10;80.15;;;;;;;-142.75;100.00;78046.91;5097113;28;20047;-69
2021/12/31 23:10:50;;;;;;;172.77;103.45;;;;;;;-142.75;100.00;78050.84;5090885;28;20120;-69
2021/12/31 23:13:15;;;;;;;327.17;220.55;;;;;;;-142.75;100.00;78042.97;5091221;28;20016;-69
2021/12/31 23:15:41;;;;;;;239.00;149.18;;;;;;;-142.75;100.00;78039.03;5091162;28;20059;-68
2021/12/31 23:18:06;;;;;;;205.73;123.60;;;;;;;-142.75;100.00;78037.06;5089956;28;20082;-69
2021/12/31 23:20:32;;;;;;;263.05;158.68;;;;;;;-142.75;100.00;78035.09;5089728;28;20478;-69
2021/12/31 23:22:57;;;;;;;345.85;215.65;;;;;;;-142.75;100.00;78042.97;5091299;28;20024;-69
2021/12/31 23:25:23;;;;;;;293.85;186.75;;;;;;;-142.75;100.00;78046.91;5091186;28;20558;-70
2021/12/31 23:27:54;;;;;;;270.02;166.95;;;;;;;-142.75;100.00;78046.91;5091553;28;20023;-69
2021/12/31 23:30:21;;;;;;;248.00;150.95;;;;;;;-142.75;100.00;78048.88;5089276;28;20081;-69
2021/12/31 23:32:47;;;;;;;236.07;141.40;;;;;;;-142.75;100.00;78056.78;5090000;28;20069;-69
2021/12/31 23:35:13;;;;;;;263.33;161.52;;;;;;;-142.75;100.00;78058.72;5087620;28;20063;-69
2021/12/31 23:37:39;;;;;;;189.27;116.20;;;;;;;-142.75;100.00;78066.63;5089434;28;20020;-69
2021/12/31 23:40:06;;;;;;;236.95;135.02;;;;;;;-142.75;100.00;78076.47;5089110;28;20393;-69
2021/12/31 23:42:38;;;;;;;201.25;122.10;;;;;;;-142.75;100.00;78086.31;5089295;28;20493;-69
2021/12/31 23:45:06;;;;;;;212.80;118.60;;;;;;;-142.75;100.00;78078.44;5088704;28;20057;-69
2021/12/31 23:47:32;;;;;;;238.63;146.45;;;;;;;-142.75;100.00;78076.47;5088137;28;20014;-69
2021/12/31 23:49:58;;;;;;;;;;;;;;;-142.75;100.00;78064.66;5087226;28;20023;-69
2021/12/31 23:52:23;;;;;;;280.92;161.02;;;;;;;-142.75;100.00;78064.66;5088678;28;19915;-70
2021/12/31 23:54:49;;;;;;;275.50;169.75;;;;;;;-142.75;100.00;78060.72;5088201;28;20028;-71
2021/12/31 23:57:16;;;;;;;247.77;153.88;;;;;;;-142.75;100.00;78060.72;5086196;28;20497;-70
2021/12/31 23:59:41;;;;;;;219.63;129.57;;;;;;;-142.75;100.00;78062.69;5087411;28;20054;-70
